Time;durP1;ratioP1;P1;durP2;ratioP2;P2;SDS_P1;SDS_P2;PMS_P1;PMS_P2;Temp;Humidity;BMP_temperature;BMP_pressure;BME280_temperature;BME280_humidity;BME280_pressure;Samples;Min_cycle;Max_cycle;Signal;HPM_P1;HPM_P2
2022/10/19 00:01:06;;;;;;;21.33;10.02;;;;;;;6.75;100.00;102886.53;4982904;28;20378;-75
2022/10/19 00:03:35;;;;;;;17.95;9.48;;;;;;;6.71;100.00;102874.34;4969999;28;20042;-74
2022/10/19 00:06:24;;;;;;;16.17;10.10;;;;;;;6.75;100.00;102882.22;4971061;28;20065;-74
2022/10/19 00:08:51;;;;;;;17.48;10.20;;;;;;;6.71;100.00;102870.03;4965966;28;20082;-74
2022/10/19 00:11:17;;;;;;;22.95;10.38;;;;;;;6.71;100.00;102870.03;4972044;28;20516;-74
2022/10/19 00:13:42;;;;;;;18.58;10.27;;;;;;;6.74;100.00;102869.25;4970826;28;20125;-74
2022/10/19 00:16:11;;;;;;;23.35;10.43;;;;;;;6.69;100.00;102871.69;4971367;28;20030;-74
2022/10/19 00:18:39;;;;;;;21.75;10.68;;;;;;;6.67;100.00;102873.41;4970005;28;20038;-74
2022/10/19 00:21:09;;;;;;;17.38;10.60;;;;;;;6.67;100.00;102878.59;4970720;28;20053;-75
2022/10/19 00:23:35;;;;;;;19.77;10.23;;;;;;;6.64;100.00;102870.72;4969355;28;20394;-74
2022/10/19 00:26:00;;;;;;;18.45;10.88;;;;;;;6.62;100.00;102862.03;4972658;28;20035;-74
2022/10/19 00:28:26;;;;;;;23.70;11.25;;;;;;;6.64;100.00;102859.44;4969908;28;20512;-74
2022/10/19 00:30:51;;;;;;;23.35;10.40;;;;;;;6.59;100.00;102856.75;4971011;28;20085;-74
2022/10/19 00:33:20;;;;;;;19.00;10.85;;;;;;;6.62;100.00;102861.16;4969828;28;20048;-74
2022/10/19 00:35:48;;;;;;;19.30;10.50;;;;;;;6.60;100.00;102849.84;4966427;28;20132;-74
2022/10/19 00:38:14;;;;;;;20.73;10.25;;;;;;;6.61;100.00;102849.91;4965996;28;20101;-74
2022/10/19 00:40:40;;;;;;;24.90;11.40;;;;;;;6.62;100.00;102856.84;4970747;28;20530;-74
2022/10/19 00:43:13;;;;;;;17.80;11.27;;;;;;;6.66;100.00;102858.66;4971063;28;20026;-74
2022/10/19 00:45:39;;;;;;;16.42;11.70;;;;;;;6.67;100.00;102857.84;4968805;28;20479;-74
2022/10/19 00:48:05;;;;;;;27.85;12.98;;;;;;;6.69;100.00;102856.16;4971019;28;20110;-74
2022/10/19 00:50:30;;;;;;;27.90;14.38;;;;;;;6.67;100.00;102860.44;4970048;28;20038;-74
2022/10/19 00:52:56;;;;;;;28.10;16.25;;;;;;;6.73;100.00;102870.94;4971383;28;20122;-74
2022/10/19 00:55:21;;;;;;;32.05;15.38;;;;;;;6.72;100.00;102870.91;4968616;28;20026;-74
2022/10/19 00:57:46;;;;;;;23.75;14.82;;;;;;;6.72;100.00;102869.19;4969539;28;20035;-74
2022/10/19 01:00:12;;;;;;;26.33;16.13;;;;;;;6.67;100.00;102860.44;4970331;28;20027;-74
2022/10/19 01:02:37;;;;;;;24.13;14.93;;;;;;;6.71;100.00;102861.38;4970599;28;20039;-75
2022/10/19 01:05:05;;;;;;;31.65;16.73;;;;;;;6.65;100.00;102859.50;4970514;28;20034;-74
2022/10/19 01:07:31;;;;;;;26.55;15.05;;;;;;;6.58;100.00;102849.84;4968755;28;20031;-74
2022/10/19 01:09:57;;;;;;;18.05;13.35;;;;;;;6.62;100.00;102854.25;4970788;28;20031;-74
2022/10/19 01:12:41;;;;;;;22.50;13.65;;;;;;;6.62;100.00;102859.44;4968153;28;20086;-74
2022/10/19 01:15:12;;;;;;;31.30;13.13;;;;;;;6.64;100.00;102862.03;4978421;28;20058;-74
2022/10/19 01:17:49;;;;;;;27.95;12.20;;;;;;;6.61;100.00;102856.81;4971258;28;20398;-74
2022/10/19 01:20:47;;;;;;;21.50;11.88;;;;;;;6.58;100.00;102860.19;4972816;28;20386;-74
2022/10/19 01:23:30;;;;;;;22.27;12.25;;;;;;;6.59;100.00;102863.66;4969517;28;20034;-74
2022/10/19 01:26:06;;;;;;;25.10;12.32;;;;;;;6.54;100.00;102855.78;4969603;28;20088;-74
2022/10/19 01:28:58;;;;;;;24.10;12.30;;;;;;;6.45;100.00;102856.41;4965816;28;20022;-74
2022/10/19 01:31:47;;;;;;;21.08;11.35;;;;;;;6.48;100.00;102855.63;4975642;28;20477;-74
2022/10/19 01:34:24;;;;;;;22.73;11.18;;;;;;;6.47;100.00;102859.03;4973013;28;20066;-75
2022/10/19 01:37:04;;;;;;;24.42;11.98;;;;;;;6.47;100.00;102849.53;4980000;28;20023;-74
2022/10/19 01:39:41;;;;;;;20.20;12.27;;;;;;;6.51;100.00;102855.72;4973844;28;20601;-74
2022/10/19 01:42:06;;;;;;;23.55;12.77;;;;;;;6.51;100.00;102855.72;4975492;28;20105;-74
2022/10/19 01:44:44;;;;;;;21.70;11.90;;;;;;;6.52;100.00;102852.28;4974535;28;20390;-74
2022/10/19 01:47:15;;;;;;;20.00;12.32;;;;;;;6.45;100.00;102850.38;4964921;28;20284;-74
2022/10/19 01:49:46;;;;;;;26.40;13.10;;;;;;;6.48;100.00;102853.91;4982051;28;20042;-74
2022/10/19 01:52:15;;;;;;;31.95;13.63;;;;;;;6.44;100.00;102857.28;4975002;28;20034;-74
2022/10/19 01:54:46;;;;;;;20.83;11.82;;;;;;;6.41;100.00;102851.09;4966401;28;20951;-74
2022/10/19 01:57:16;;;;;;;18.80;12.18;;;;;;;6.35;100.00;102841.47;4974948;28;20082;-74
2022/10/19 01:59:42;;;;;;;26.10;12.50;;;;;;;6.41;100.00;102839.06;4974699;28;20474;-74
2022/10/19 02:02:10;;;;;;;25.90;12.15;;;;;;;6.37;100.00;102833.72;4975205;28;20077;-74
2022/10/19 02:04:37;;;;;;;25.38;13.68;;;;;;;6.39;100.00;102832.94;4984046;28;20438;-75
2022/10/19 02:07:06;;;;;;;26.05;13.13;;;;;;;6.42;100.00;102833.03;4973376;28;20127;-74
2022/10/19 02:09:32;;;;;;;21.33;12.60;;;;;;;6.38;100.00;102827.72;4972645;28;20031;-74
2022/10/19 02:12:02;;;;;;;28.55;13.00;;;;;;;6.35;100.00;102825.06;4974499;28;20645;-74
2022/10/19 02:14:31;;;;;;;25.95;13.10;;;;;;;6.30;100.00;102819.75;4970598;28;20031;-74
2022/10/19 02:17:05;;;;;;;24.00;12.88;;;;;;;6.27;100.00;102824.84;4978772;28;20026;-74
2022/10/19 02:19:30;;;;;;;;;;;;;;;6.22;100.00;102809.19;4965008;28;20038;-74
2022/10/19 02:21:56;;;;;;;21.13;12.57;;;;;;;6.21;100.00;102814.31;4971644;28;20293;-75
2022/10/19 02:24:21;;;;;;;25.48;12.65;;;;;;;6.17;100.00;102808.19;4954872;28;20801;-74
2022/10/19 02:26:47;;;;;;;22.75;13.75;;;;;;;6.15;100.00;102809.88;4974765;28;20063;-74
2022/10/19 02:29:14;;;;;;;21.35;12.38;;;;;;;6.15;100.00;102815.06;4969256;28;20114;-74
2022/10/19 02:31:39;;;;;;;24.33;12.45;;;;;;;6.14;100.00;102812.41;4972804;28;20070;-74
2022/10/19 02:34:05;;;;;;;21.35;12.05;;;;;;;6.05;100.00;102803.59;4973848;28;20035;-74
2022/10/19 02:36:31;;;;;;;21.48;11.93;;;;;;;6.02;100.00;102793.13;4972821;28;20109;-74
2022/10/19 02:38:56;;;;;;;21.52;11.50;;;;;;;6.01;100.00;102800.84;4972522;28;20042;-74
2022/10/19 02:41:49;;;;;;;26.55;11.68;;;;;;;5.98;100.00;102800.78;4973340;28;20043;-74
2022/10/19 02:44:21;;;;;;;20.08;11.63;;;;;;;5.93;100.00;102787.72;4971604;28;20034;-74
2022/10/19 02:47:08;;;;;;;22.98;12.10;;;;;;;5.89;100.00;102793.63;4972439;28;20031;-74
2022/10/19 02:49:35;;;;;;;19.95;12.05;;;;;;;5.89;100.00;102782.41;4971553;28;20553;-75
2022/10/19 02:52:07;;;;;;;17.85;11.77;;;;;;;5.78;100.00;102767.41;4972628;28;20046;-74
2022/10/19 02:54:33;;;;;;;17.50;10.93;;;;;;;5.83;100.00;102791.72;4971422;28;20537;-74
2022/10/19 02:56:58;;;;;;;23.20;11.45;;;;;;;5.84;100.00;102798.66;4972555;28;20101;-74
2022/10/19 02:59:24;;;;;;;21.10;11.13;;;;;;;5.83;100.00;102802.09;4971112;28;20394;-74
2022/10/19 03:01:50;;;;;;;19.33;11.25;;;;;;;5.82;100.00;102783.91;4969057;28;20039;-74
2022/10/19 03:04:15;;;;;;;17.60;10.63;;;;;;;5.82;100.00;102790.00;4971266;28;20054;-74
2022/10/19 03:06:41;;;;;;;22.80;10.65;;;;;;;5.77;100.00;102790.69;4973334;28;20031;-74
2022/10/19 03:09:06;;;;;;;20.65;10.98;;;;;;;5.79;100.00;102779.56;4972431;28;20035;-74
2022/10/19 03:11:33;;;;;;;22.23;11.48;;;;;;;5.78;100.00;102790.72;4971101;28;20565;-74
2022/10/19 03:13:59;;;;;;;23.67;10.85;;;;;;;5.71;100.00;102786.22;4972706;28;20041;-74
2022/10/19 03:16:24;;;;;;;17.80;10.32;;;;;;;5.68;100.00;102785.25;4971011;28;20026;-74
2022/10/19 03:18:50;;;;;;;22.25;10.80;;;;;;;5.68;100.00;102798.19;4970300;28;20034;-74
2022/10/19 03:21:16;;;;;;;21.38;10.98;;;;;;;5.64;100.00;102799.81;4973168;28;20353;-74
2022/10/19 03:23:42;;;;;;;22.15;11.15;;;;;;;5.65;100.00;102806.75;4971856;28;20035;-74
2022/10/19 03:26:10;;;;;;;18.38;9.88;;;;;;;5.63;100.00;102803.25;4971650;28;20370;-74
2022/10/19 03:28:36;;;;;;;16.30;9.95;;;;;;;5.64;100.00;102797.22;4971338;28;20031;-74
2022/10/19 03:31:01;;;;;;;19.45;10.52;;;;;;;5.54;100.00;102782.28;4973407;28;20552;-74
2022/10/19 03:33:26;;;;;;;17.20;10.77;;;;;;;5.54;100.00;102792.63;4970521;28;20035;-74
2022/10/19 03:36:16;;;;;;;15.70;10.00;;;;;;;5.49;100.00;102791.63;4972869;28;20027;-74
2022/10/19 03:38:41;;;;;;;18.77;9.73;;;;;;;5.49;100.00;102784.72;4959869;28;20042;-74
2022/10/19 03:41:07;;;;;;;16.70;9.77;;;;;;;5.46;100.00;102794.09;4973310;28;20414;-74
2022/10/19 03:43:33;;;;;;;17.73;10.20;;;;;;;5.38;100.00;102791.31;4970605;28;20033;-74
2022/10/19 03:45:58;;;;;;;16.85;10.25;;;;;;;5.39;100.00;102788.78;4972629;28;20023;-74
2022/10/19 03:48:23;;;;;;;21.45;10.52;;;;;;;5.37;100.00;102785.28;4970764;28;20031;-74
2022/10/19 03:51:01;;;;;;;21.10;10.73;;;;;;;5.35;100.00;102786.03;4973263;28;20381;-74
2022/10/19 03:53:26;;;;;;;16.73;9.75;;;;;;;5.31;100.00;102790.25;4970656;28;20109;-74
2022/10/19 03:55:52;;;;;;;17.95;9.95;;;;;;;5.28;100.00;102797.91;4972838;28;20118;-74
2022/10/19 03:58:17;;;;;;;19.77;10.40;;;;;;;5.26;100.00;102797.00;4969913;28;20381;-74
2022/10/19 04:00:42;;;;;;;20.60;11.13;;;;;;;5.27;100.00;102798.75;4976271;28;20037;-74
2022/10/19 04:03:08;;;;;;;18.42;11.20;;;;;;;5.24;100.00;102803.84;4971835;28;20041;-74
2022/10/19 04:05:33;;;;;;;20.10;11.15;;;;;;;5.24;100.00;102790.91;4971684;28;20057;-74
2022/10/19 04:07:58;;;;;;;20.10;12.02;;;;;;;5.23;100.00;102796.03;4970656;28;20081;-74
2022/10/19 04:10:23;;;;;;;22.00;11.95;;;;;;;5.23;100.00;102809.84;4972216;28;20057;-75
2022/10/19 04:12:49;;;;;;;22.10;11.73;;;;;;;5.23;100.00;102806.38;4970951;28;20043;-74
2022/10/19 04:15:14;;;;;;;20.50;12.50;;;;;;;5.19;100.00;102789.00;4969168;28;20022;-74
2022/10/19 04:17:39;;;;;;;19.45;11.80;;;;;;;5.19;100.00;102794.19;4970248;28;20124;-74
2022/10/19 04:20:05;;;;;;;21.13;11.48;;;;;;;5.16;100.00;102790.66;4966681;28;20054;-74
2022/10/19 04:22:30;;;;;;;28.08;11.05;;;;;;;5.17;100.00;102788.97;4970160;28;20398;-74
2022/10/19 04:24:55;;;;;;;22.98;11.55;;;;;;;5.11;100.00;102786.22;4972948;28;20105;-74
2022/10/19 04:27:21;;;;;;;22.63;11.25;;;;;;;5.06;100.00;102788.63;4970040;28;20024;-74
2022/10/19 04:29:46;;;;;;;20.30;11.13;;;;;;;5.09;100.00;102780.09;4970850;28;20039;-74
2022/10/19 04:32:11;;;;;;;21.67;10.93;;;;;;;5.11;100.00;102781.03;4968809;28;20081;-75
2022/10/19 04:34:36;;;;;;;21.55;11.93;;;;;;;5.10;100.00;102779.25;4970081;28;20066;-74
2022/10/19 04:37:02;;;;;;;24.55;12.00;;;;;;;5.10;100.00;102780.16;4971897;28;20089;-74
2022/10/19 04:39:27;;;;;;;22.70;12.02;;;;;;;5.10;100.00;102776.69;4970941;28;20069;-74
2022/10/19 04:41:52;;;;;;;25.15;11.68;;;;;;;4.99;100.00;102767.72;4971612;28;20042;-74
2022/10/19 04:44:18;;;;;;;20.48;11.52;;;;;;;5.09;100.00;102782.69;4970383;28;20069;-74
2022/10/19 04:46:43;;;;;;;17.23;10.82;;;;;;;5.10;100.00;102781.84;4969638;28;20461;-74
2022/10/19 04:49:08;;;;;;;26.10;11.98;;;;;;;5.05;100.00;102783.44;4970576;28;20039;-74
2022/10/19 04:51:34;;;;;;;27.00;11.93;;;;;;;5.11;100.00;102778.44;4970656;28;20035;-74
2022/10/19 04:54:01;;;;;;;30.70;12.45;;;;;;;5.11;100.00;102779.31;4970422;28;20043;-74
2022/10/19 04:56:27;;;;;;;28.23;13.32;;;;;;;5.13;100.00;102784.53;4968829;28;20061;-74
2022/10/19 04:58:56;;;;;;;19.70;11.75;;;;;;;5.13;100.00;102784.53;4971436;28;20054;-74
2022/10/19 05:01:22;;;;;;;26.60;12.30;;;;;;;5.12;100.00;102780.19;4968234;28;20041;-75
2022/10/19 05:03:51;;;;;;;24.58;12.63;;;;;;;5.07;100.00;102774.91;4969572;28;20109;-74
2022/10/19 05:06:16;;;;;;;24.50;13.23;;;;;;;5.14;100.00;102791.47;4970198;28;20056;-74
2022/10/19 05:08:42;;;;;;;23.38;13.00;;;;;;;5.13;100.00;102789.69;4971983;28;20077;-74
2022/10/19 05:11:13;;;;;;;23.77;12.10;;;;;;;5.12;100.00;102790.53;4977969;28;20077;-74
2022/10/19 05:13:39;;;;;;;26.80;12.20;;;;;;;5.14;100.00;102783.72;4976503;28;20117;-74
2022/10/19 05:16:07;;;;;;;24.17;12.52;;;;;;;5.14;100.00;102787.19;4976965;28;20170;-74
2022/10/19 05:18:33;;;;;;;22.13;13.13;;;;;;;5.10;100.00;102784.44;4975249;28;20054;-74
2022/10/19 05:21:17;;;;;;;23.40;12.38;;;;;;;5.09;100.00;102785.28;4978658;28;20018;-74
2022/10/19 05:23:43;;;;;;;29.52;13.52;;;;;;;5.10;100.00;102772.41;4975854;28;20031;-74
2022/10/19 05:26:17;;;;;;;22.98;12.13;;;;;;;5.08;100.00;102776.66;4976795;28;20085;-74
2022/10/19 05:28:46;;;;;;;31.10;12.63;;;;;;;5.06;100.00;102773.13;4975475;28;20043;-74
2022/10/19 05:31:17;;;;;;;23.15;13.10;;;;;;;5.06;100.00;102761.91;4974471;28;20501;-74
2022/10/19 05:33:43;;;;;;;32.47;14.43;;;;;;;5.08;100.00;102758.56;4977015;28;20053;-74
2022/10/19 05:36:11;;;;;;;24.98;13.27;;;;;;;5.08;100.00;102755.97;4990021;28;20030;-74
2022/10/19 05:38:36;;;;;;;26.25;13.13;;;;;;;5.10;100.00;102762.06;4977994;28;20094;-74
2022/10/19 05:41:02;;;;;;;23.63;14.07;;;;;;;5.04;100.00;102758.44;4982799;28;20047;-74
2022/10/19 05:43:27;;;;;;;28.13;13.45;;;;;;;5.00;100.00;102757.44;4974710;28;20102;-74
2022/10/19 05:45:52;;;;;;;27.92;13.55;;;;;;;5.00;100.00;102756.56;4975492;28;20039;-74
2022/10/19 05:48:18;;;;;;;31.30;13.90;;;;;;;5.01;100.00;102754.03;4976035;28;20045;-74
2022/10/19 05:50:53;;;;;;;27.58;13.93;;;;;;;5.02;100.00;102757.50;4977479;28;20441;-74
2022/10/19 05:53:18;;;;;;;28.17;14.90;;;;;;;5.06;100.00;102757.63;4975675;28;20030;-74
2022/10/19 05:55:44;;;;;;;33.42;16.23;;;;;;;5.03;100.00;102748.91;4975453;28;20033;-75
2022/10/19 05:58:09;;;;;;;28.83;14.88;;;;;;;5.07;100.00;102751.63;4976021;28;20113;-74
2022/10/19 06:00:34;;;;;;;28.90;15.20;;;;;;;5.08;100.00;102747.34;4958802;28;20526;-75
2022/10/19 06:02:59;;;;;;;38.65;16.98;;;;;;;5.05;100.00;102745.53;4986013;28;20109;-74
2022/10/19 06:05:25;;;;;;;31.38;17.02;;;;;;;5.07;100.00;102750.75;4974820;28;20042;-74
2022/10/19 06:07:50;;;;;;;39.42;17.73;;;;;;;5.07;100.00;102753.34;4976033;28;20042;-74
2022/10/19 06:10:16;;;;;;;33.67;17.50;;;;;;;5.04;100.00;102745.50;4980200;28;20023;-74
2022/10/19 06:12:41;;;;;;;35.03;16.88;;;;;;;5.03;100.00;102742.00;4976723;28;20050;-74
2022/10/19 06:15:07;;;;;;;31.48;16.80;;;;;;;5.00;100.00;102736.75;4975369;28;20058;-74
2022/10/19 06:17:32;;;;;;;29.70;15.30;;;;;;;5.08;100.00;102742.16;4974915;28;20026;-74
2022/10/19 06:19:57;;;;;;;39.35;18.30;;;;;;;5.11;100.00;102745.72;4973860;28;20027;-74
2022/10/19 06:22:23;;;;;;;31.92;17.52;;;;;;;5.07;100.00;102728.38;4972547;28;20054;-74
2022/10/19 06:24:48;;;;;;;34.35;17.80;;;;;;;5.17;100.00;102737.28;4974815;28;20030;-74
2022/10/19 06:27:13;;;;;;;35.17;18.02;;;;;;;5.13;100.00;102743.16;4971350;28;20039;-74
2022/10/19 06:29:39;;;;;;;34.38;17.50;;;;;;;5.13;100.00;102749.22;4977540;28;20026;-74
2022/10/19 06:32:04;;;;;;;36.30;16.88;;;;;;;5.18;100.00;102741.59;4972277;28;20026;-74
2022/10/19 06:34:29;;;;;;;37.90;16.30;;;;;;;5.17;100.00;102745.03;4972597;28;20042;-74
2022/10/19 06:36:54;;;;;;;33.00;16.55;;;;;;;5.19;100.00;102742.47;4973288;28;20466;-74
2022/10/19 06:39:20;;;;;;;37.33;17.60;;;;;;;5.20;100.00;102746.81;4971249;28;20093;-74
2022/10/19 06:41:45;;;;;;;33.35;18.05;;;;;;;5.18;100.00;102751.06;4973430;28;20486;-74
2022/10/19 06:44:10;;;;;;;42.28;19.80;;;;;;;5.16;100.00;102751.00;4972678;28;20043;-74
2022/10/19 06:46:35;;;;;;;34.22;18.55;;;;;;;5.13;100.00;102740.56;4971739;28;20110;-74
2022/10/19 06:49:01;;;;;;;37.33;18.30;;;;;;;5.20;100.00;102745.13;4972134;28;20470;-74
2022/10/19 06:51:32;;;;;;;37.33;18.15;;;;;;;5.24;100.00;102746.94;4972694;28;20034;-74
2022/10/19 06:53:58;;;;;;;37.92;19.55;;;;;;;5.25;100.00;102747.81;4972202;28;20066;-74
2022/10/19 06:56:24;;;;;;;35.67;20.05;;;;;;;5.32;100.00;102750.63;4972986;28;20023;-75
2022/10/19 06:58:51;;;;;;;42.72;21.50;;;;;;;5.46;100.00;102755.31;4971514;28;20034;-75
2022/10/19 07:01:16;;;;;;;40.38;21.92;;;;;;;5.49;100.00;102752.81;4972547;28;20031;-74
2022/10/19 07:03:42;;;;;;;40.33;21.17;;;;;;;5.49;100.00;102742.47;4970239;28;20031;-74
2022/10/19 07:06:10;;;;;;;42.05;22.33;;;;;;;5.57;100.00;102741.84;4971697;28;20019;-74
2022/10/19 07:08:37;;;;;;;39.00;22.13;;;;;;;5.63;100.00;102738.56;4973312;28;20106;-74
2022/10/19 07:11:06;;;;;;;50.88;23.45;;;;;;;5.67;100.00;102742.09;4973602;28;20089;-74
2022/10/19 07:13:32;;;;;;;42.15;21.20;;;;;;;5.72;100.00;102750.84;4970641;28;20225;-74
2022/10/19 07:16:17;;;;;;;41.00;21.50;;;;;;;5.76;100.00;102750.13;4971908;28;20030;-74
2022/10/19 07:18:42;;;;;;;47.97;21.67;;;;;;;5.81;100.00;102746.81;4973303;28;20029;-75
2022/10/19 07:21:11;;;;;;;41.67;21.17;;;;;;;5.94;100.00;102744.56;4971294;28;20027;-74
2022/10/19 07:23:38;;;;;;;49.67;21.58;;;;;;;5.99;100.00;102745.59;4972484;28;20037;-74
2022/10/19 07:26:19;;;;;;;37.47;20.13;;;;;;;6.06;100.00;102742.31;4972688;28;20034;-74
2022/10/19 07:28:46;;;;;;;38.30;20.98;;;;;;;6.09;100.00;102747.56;4972973;28;20036;-73
2022/10/19 07:31:14;;;;;;;37.90;19.65;;;;;;;6.11;100.00;102743.28;4970122;28;20077;-74
2022/10/19 07:33:39;;;;;;;35.25;19.23;;;;;;;6.17;100.00;102748.63;4971705;28;20050;-74
2022/10/19 07:36:08;;;;;;;40.13;20.67;;;;;;;6.26;100.00;102745.41;4972311;28;20042;-73
2022/10/19 07:38:34;;;;;;;39.25;20.00;;;;;;;6.29;100.00;102738.56;4970378;28;20051;-74
2022/10/19 07:41:01;;;;;;;43.67;20.08;;;;;;;6.36;100.00;102741.31;4972999;28;20100;-73
2022/10/19 07:43:27;;;;;;;38.72;20.95;;;;;;;6.38;100.00;102740.53;4972319;28;20054;-74
2022/10/19 07:46:04;;;;;;;38.80;21.00;;;;;;;6.44;100.00;102740.66;4972556;28;20031;-74
2022/10/19 07:48:30;;;;;;;37.78;21.17;;;;;;;6.49;100.00;102733.88;4970406;28;20027;-74
2022/10/19 07:50:55;;;;;;;39.80;20.00;;;;;;;6.55;100.00;102730.56;4973021;28;20058;-73
2022/10/19 07:53:21;;;;;;;38.53;20.27;;;;;;;6.59;100.00;102731.50;4970670;28;20034;-73
2022/10/19 07:55:46;;;;;;;38.78;20.00;;;;;;;6.65;100.00;102734.22;4971095;28;20043;-73
2022/10/19 07:58:12;;;;;;;36.75;20.42;;;;;;;6.70;100.00;102737.78;4971379;28;20031;-74
2022/10/19 08:00:37;;;;;;;38.42;20.08;;;;;;;6.69;100.00;102720.50;4971745;28;20042;-74
2022/10/19 08:03:02;;;;;;;42.58;19.85;;;;;;;6.74;100.00;102724.09;4979369;28;20027;-74
2022/10/19 08:05:28;;;;;;;34.42;19.50;;;;;;;6.78;100.00;102713.81;4970077;28;20474;-73
2022/10/19 08:07:53;;;;;;;37.88;20.08;;;;;;;6.85;100.00;102717.41;4971927;28;20118;-73
2022/10/19 08:10:18;;;;;;;37.92;19.02;;;;;;;6.78;100.00;102703.44;4968445;28;20030;-73
2022/10/19 08:12:44;;;;;;;32.97;18.38;;;;;;;6.98;100.00;102729.78;4971049;28;20045;-73
2022/10/19 08:15:09;;;;;;;37.63;19.20;;;;;;;7.03;100.00;102732.50;4972439;28;20031;-73
2022/10/19 08:17:35;;;;;;;34.63;18.80;;;;;;;7.10;100.00;102717.94;4972037;28;20109;-74
2022/10/19 08:20:01;;;;;;;38.75;19.73;;;;;;;7.17;100.00;102715.50;4971516;28;20050;-74
2022/10/19 08:22:27;;;;;;;34.20;19.20;;;;;;;7.21;100.00;102706.91;4970946;28;20116;-74
2022/10/19 08:24:52;;;;;;;30.42;18.60;;;;;;;7.30;100.00;102707.97;4969971;28;20490;-74
2022/10/19 08:27:17;;;;;;;37.85;18.50;;;;;;;7.34;100.00;102696.78;4971324;28;20043;-74
2022/10/19 08:29:42;;;;;;;37.50;18.75;;;;;;;7.42;100.00;102692.63;4971980;28;20027;-74
2022/10/19 08:32:08;;;;;;;31.73;18.15;;;;;;;7.50;100.00;102684.13;4972544;28;20100;-74
2022/10/19 08:34:33;;;;;;;32.72;17.83;;;;;;;7.59;100.00;102688.63;4970984;28;20023;-74
2022/10/19 08:37:00;;;;;;;33.47;17.58;;;;;;;7.64;100.00;102679.19;4972631;28;20085;-74
2022/10/19 08:39:26;;;;;;;29.98;15.80;;;;;;;7.77;100.00;102684.59;4971836;28;20043;-74
2022/10/19 08:42:13;;;;;;;30.45;16.98;;;;;;;7.82;100.00;102678.66;4971390;28;20077;-74
2022/10/19 08:45:06;;;;;;;29.17;16.67;;;;;;;7.93;100.00;102687.50;4970918;28;20462;-74
2022/10/19 08:47:43;;;;;;;36.78;16.65;;;;;;;7.99;100.00;102678.94;4971394;28;20125;-74
2022/10/19 08:50:24;;;;;;;29.98;15.93;;;;;;;8.12;100.00;102678.28;4972266;28;20059;-74
2022/10/19 08:53:02;;;;;;;30.42;15.75;;;;;;;8.19;100.00;102677.53;4972101;28;20023;-74
2022/10/19 08:55:40;;;;;;;27.45;16.33;;;;;;;8.23;100.00;102660.25;4970696;28;20023;-74
2022/10/19 08:58:31;;;;;;;27.63;14.73;;;;;;;8.44;100.00;102678.81;4972480;28;20027;-74
2022/10/19 09:01:08;;;;;;;27.20;14.57;;;;;;;8.57;100.00;102677.28;4935870;28;20050;-74
2022/10/19 09:03:58;;;;;;;25.83;14.00;;;;;;;8.72;100.00;102668.78;4970325;28;20430;-73
2022/10/19 09:06:42;;;;;;;25.92;13.27;;;;;;;8.81;100.00;102674.13;4971489;28;20069;-74
2022/10/19 09:09:12;;;;;;;25.90;12.23;;;;;;;8.91;100.00;102662.97;4971810;28;20054;-74
2022/10/19 09:11:41;;;;;;;22.77;11.88;;;;;;;8.99;100.00;102660.50;4971525;28;20038;-74
2022/10/19 09:14:17;;;;;;;23.17;11.98;;;;;;;9.08;100.00;102665.78;4972098;28;20566;-74
2022/10/19 09:16:42;;;;;;;18.88;11.02;;;;;;;9.13;100.00;102660.66;4971002;28;20038;-74
2022/10/19 09:19:14;;;;;;;22.40;11.05;;;;;;;9.22;100.00;102675.47;4972234;28;20101;-74
2022/10/19 09:21:47;;;;;;;25.70;11.07;;;;;;;9.25;100.00;102683.31;4971368;28;20030;-74
2022/10/19 09:24:28;;;;;;;24.63;11.47;;;;;;;9.28;100.00;102692.03;4970585;28;20015;-73
2022/10/19 09:26:59;;;;;;;20.63;10.68;;;;;;;9.40;100.00;102693.91;4972326;28;20027;-74
2022/10/19 09:29:27;;;;;;;25.33;11.32;;;;;;;9.48;100.00;102683.56;4971038;28;20022;-74
2022/10/19 09:31:55;;;;;;;19.42;10.45;;;;;;;9.58;100.00;102682.78;4971196;28;20394;-74
2022/10/19 09:34:40;;;;;;;20.45;10.10;;;;;;;9.65;100.00;102681.16;4970457;28;20034;-74
2022/10/19 09:37:05;;;;;;;19.48;10.35;;;;;;;9.73;100.00;102675.13;4971578;28;20035;-74
2022/10/19 09:39:31;;;;;;;21.95;9.75;;;;;;;9.79;100.00;102670.00;4970915;28;20034;-74
2022/10/19 09:41:59;;;;;;;20.73;10.10;;;;;;;9.89;100.00;102670.06;4971817;28;20047;-74
2022/10/19 09:44:26;;;;;;;25.40;9.65;;;;;;;9.98;100.00;102665.81;4970015;28;20359;-74
2022/10/19 09:47:13;;;;;;;23.73;9.65;;;;;;;10.11;100.00;102653.75;4971235;28;20434;-74
2022/10/19 09:49:44;;;;;;;18.50;9.05;;;;;;;10.20;100.00;102660.75;4969933;28;20545;-74
2022/10/19 09:52:38;;;;;;;22.10;8.35;;;;;;;10.28;100.00;102646.09;4970421;28;20497;-74
2022/10/19 09:55:06;;;;;;;;;;;;;;;10.35;100.00;102639.16;4971606;28;20027;-73
2022/10/19 09:57:32;;;;;;;14.57;8.55;;;;;;;10.42;100.00;102636.59;4974313;28;20846;-73
2022/10/19 09:59:57;;;;;;;16.13;8.18;;;;;;;10.50;100.00;102634.06;4974239;28;20034;-74
2022/10/19 10:02:31;;;;;;;11.80;6.50;;;;;;;10.56;100.00;102634.06;4971225;28;20027;-75
2022/10/19 10:05:05;;;;;;;12.63;6.45;;;;;;;10.58;100.00;102626.25;4974424;28;20077;-74
2022/10/19 10:07:37;;;;;;;11.43;6.68;;;;;;;10.63;100.00;102627.16;4962916;28;20026;-74
2022/10/19 10:10:21;;;;;;;12.20;6.32;;;;;;;10.71;100.00;102646.31;4970089;28;20105;-75
2022/10/19 10:12:47;;;;;;;12.35;5.70;;;;;;;10.77;100.00;102638.53;4973108;28;20033;-75
2022/10/19 10:15:18;;;;;;;12.52;5.95;;;;;;;10.78;100.00;102640.25;4973643;28;20386;-75
2022/10/19 10:17:46;;;;;;;13.85;5.40;;;;;;;10.81;100.00;102635.06;4973721;28;20166;-74
2022/10/19 10:20:23;;;;;;;13.95;6.10;;;;;;;10.84;100.00;102629.00;4973494;28;20034;-75
2022/10/19 10:23:21;;;;;;;15.68;5.78;;;;;;;10.91;100.00;102639.44;4974325;28;20110;-74
2022/10/19 10:25:47;;;;;;;12.20;5.40;;;;;;;10.99;100.00;102647.31;4978381;28;20437;-74
2022/10/19 10:28:24;;;;;;;13.90;5.43;;;;;;;10.96;100.00;102616.00;4973577;28;20027;-75
2022/10/19 10:30:54;;;;;;;12.43;5.35;;;;;;;11.13;100.00;102626.47;4973994;28;20486;-74
2022/10/19 10:33:25;;;;;;;10.75;5.72;;;;;;;11.19;100.00;102632.59;4973648;28;20485;-75
2022/10/19 10:35:54;;;;;;;11.85;5.65;;;;;;;11.32;100.00;102625.66;4974363;28;20057;-75
2022/10/19 10:38:26;;;;;;;14.13;5.35;;;;;;;11.40;100.00;102620.44;4961534;28;20022;-75
2022/10/19 10:40:58;;;;;;;11.63;5.90;;;;;;;11.47;100.00;102623.03;4972925;28;20465;-76
2022/10/19 10:43:32;;;;;;;14.52;5.90;;;;;;;11.54;100.00;102610.00;4973487;28;20023;-74
2022/10/19 10:46:06;;;;;;;11.25;5.50;;;;;;;11.57;100.00;102610.88;4974018;28;20031;-75
2022/10/19 10:48:41;;;;;;;14.83;6.43;;;;;;;11.69;100.00;102610.88;4963269;28;20022;-75
2022/10/19 10:51:20;;;;;;;10.52;6.43;;;;;;;11.77;100.00;102608.28;4973432;28;20030;-75
2022/10/19 10:53:46;;;;;;;13.80;6.18;;;;;;;11.79;100.00;102603.03;4969858;28;20509;-75
2022/10/19 10:56:27;;;;;;;13.48;5.93;;;;;;;11.89;100.00;102603.06;4972966;28;20066;-75
2022/10/19 10:59:09;;;;;;;11.35;6.03;;;;;;;11.99;100.00;102595.22;4962293;28;20081;-75
2022/10/19 11:01:39;;;;;;;18.70;6.78;;;;;;;12.14;100.00;102596.06;4972678;28;20405;-76
2022/10/19 11:04:16;;;;;;;13.57;6.13;;;;;;;12.26;100.00;102584.72;4973831;28;20082;-75
2022/10/19 11:06:46;;;;;;;15.02;6.55;;;;;;;12.45;98.78;102582.03;4972423;28;20035;-75
2022/10/19 11:09:23;;;;;;;9.73;5.75;;;;;;;12.56;98.71;102572.41;4973237;28;20455;-75
2022/10/19 11:11:54;;;;;;;11.40;6.15;;;;;;;12.78;97.72;102563.56;4971524;28;20035;-75
2022/10/19 11:14:47;;;;;;;15.10;5.88;;;;;;;12.93;98.59;102564.38;4965989;28;20030;-75
2022/10/19 11:17:19;;;;;;;13.98;5.85;;;;;;;13.05;94.45;102569.53;4973032;28;20027;-75
2022/10/19 11:19:45;;;;;;;9.17;5.37;;;;;;;13.19;93.23;102564.19;4973896;28;20035;-76